sensor_id;sensor_type;location;lat;lon;timestamp;P1;durP1;ratioP1;P2;durP2;ratioP2
58101;SDS011;52034;51.926;6.320;2023-05-10T00:00:56;17.83;;;13.37;;
58101;SDS011;52034;51.926;6.320;2023-05-10T00:01:57;17.58;;;13.02;;
58101;SDS011;52034;51.926;6.320;2023-05-10T00:02:57;16.23;;;12.80;;
58101;SDS011;52034;51.926;6.320;2023-05-10T00:03:58;21.23;;;14.03;;
58101;SDS011;52034;51.926;6.320;2023-05-10T00:04:58;20.00;;;13.17;;
58101;SDS011;52034;51.926;6.320;2023-05-10T00:05:58;23.53;;;14.80;;
58101;SDS011;52034;51.926;6.320;2023-05-10T00:06:59;17.43;;;13.37;;
58101;SDS011;52034;51.926;6.320;2023-05-10T00:07:59;18.27;;;12.77;;
58101;SDS011;52034;51.926;6.320;2023-05-10T00:08:59;15.00;;;12.37;;
58101;SDS011;52034;51.926;6.320;2023-05-10T00:10:00;15.73;;;12.27;;
58101;SDS011;52034;51.926;6.320;2023-05-10T00:11:00;16.20;;;12.03;;
58101;SDS011;52034;51.926;6.320;2023-05-10T00:12:00;14.60;;;11.80;;
58101;SDS011;52034;51.926;6.320;2023-05-10T00:13:01;16.73;;;11.47;;
58101;SDS011;52034;51.926;6.320;2023-05-10T00:14:01;17.77;;;12.17;;
58101;SDS011;52034;51.926;6.320;2023-05-10T00:15:01;15.07;;;11.50;;
58101;SDS011;52034;51.926;6.320;2023-05-10T00:16:02;13.82;;;11.02;;
58101;SDS011;52034;51.926;6.320;2023-05-10T00:17:03;16.30;;;11.40;;
58101;SDS011;52034;51.926;6.320;2023-05-10T00:18:03;10.70;;;8.90;;
58101;SDS011;52034;51.926;6.320;2023-05-10T00:19:03;12.50;;;10.07;;
58101;SDS011;52034;51.926;6.320;2023-05-10T00:20:04;12.77;;;10.37;;
58101;SDS011;52034;51.926;6.320;2023-05-10T00:21:05;12.18;;;9.93;;
58101;SDS011;52034;51.926;6.320;2023-05-10T00:22:05;13.13;;;10.70;;
58101;SDS011;52034;51.926;6.320;2023-05-10T00:23:06;13.57;;;10.67;;
58101;SDS011;52034;51.926;6.320;2023-05-10T00:24:06;29.90;;;13.53;;
58101;SDS011;52034;51.926;6.320;2023-05-10T00:25:07;14.20;;;10.30;;
58101;SDS011;52034;51.926;6.320;2023-05-10T00:26:08;16.10;;;11.77;;
58101;SDS011;52034;51.926;6.320;2023-05-10T00:27:08;16.13;;;11.07;;
58101;SDS011;52034;51.926;6.320;2023-05-10T00:28:08;16.37;;;11.50;;
58101;SDS011;52034;51.926;6.320;2023-05-10T00:29:11;16.73;;;11.57;;
58101;SDS011;52034;51.926;6.320;2023-05-10T00:30:11;15.27;;;11.40;;
58101;SDS011;52034;51.926;6.320;2023-05-10T00:31:12;12.87;;;10.40;;
58101;SDS011;52034;51.926;6.320;2023-05-10T00:32:12;13.90;;;11.13;;
58101;SDS011;52034;51.926;6.320;2023-05-10T00:33:13;11.80;;;10.60;;
58101;SDS011;52034;51.926;6.320;2023-05-10T00:34:14;16.60;;;11.83;;
58101;SDS011;52034;51.926;6.320;2023-05-10T00:35:15;19.60;;;11.97;;
58101;SDS011;52034;51.926;6.320;2023-05-10T00:36:15;11.85;;;10.25;;
58101;SDS011;52034;51.926;6.320;2023-05-10T00:37:16;14.27;;;11.00;;
58101;SDS011;52034;51.926;6.320;2023-05-10T00:38:16;11.40;;;10.20;;
58101;SDS011;52034;51.926;6.320;2023-05-10T00:39:16;15.00;;;11.77;;
58101;SDS011;52034;51.926;6.320;2023-05-10T00:40:18;15.02;;;11.82;;
58101;SDS011;52034;51.926;6.320;2023-05-10T00:41:22;13.05;;;11.45;;
58101;SDS011;52034;51.926;6.320;2023-05-10T00:42:23;14.80;;;11.70;;
58101;SDS011;52034;51.926;6.320;2023-05-10T00:43:25;14.77;;;11.63;;
58101;SDS011;52034;51.926;6.320;2023-05-10T00:44:25;23.63;;;14.50;;
58101;SDS011;52034;51.926;6.320;2023-05-10T00:45:25;14.77;;;11.00;;
58101;SDS011;52034;51.926;6.320;2023-05-10T00:46:27;12.13;;;10.82;;
58101;SDS011;52034;51.926;6.320;2023-05-10T00:47:28;14.65;;;11.52;;
58101;SDS011;52034;51.926;6.320;2023-05-10T00:48:30;14.77;;;11.98;;
58101;SDS011;52034;51.926;6.320;2023-05-10T00:49:30;14.10;;;11.47;;
58101;SDS011;52034;51.926;6.320;2023-05-10T00:50:31;20.27;;;13.20;;
58101;SDS011;52034;51.926;6.320;2023-05-10T00:51:33;14.93;;;11.73;;
58101;SDS011;52034;51.926;6.320;2023-05-10T00:52:33;13.07;;;11.37;;
58101;SDS011;52034;51.926;6.320;2023-05-10T00:53:34;16.20;;;11.87;;
58101;SDS011;52034;51.926;6.320;2023-05-10T00:54:35;16.35;;;12.90;;
58101;SDS011;52034;51.926;6.320;2023-05-10T00:55:36;14.70;;;11.60;;
58101;SDS011;52034;51.926;6.320;2023-05-10T00:56:37;16.77;;;12.57;;
58101;SDS011;52034;51.926;6.320;2023-05-10T00:57:38;12.80;;;11.07;;
58101;SDS011;52034;51.926;6.320;2023-05-10T00:58:41;16.47;;;12.47;;
58101;SDS011;52034;51.926;6.320;2023-05-10T00:59:42;14.82;;;11.40;;
58101;SDS011;52034;51.926;6.320;2023-05-10T01:00:42;20.53;;;12.00;;
58101;SDS011;52034;51.926;6.320;2023-05-10T01:01:45;17.30;;;13.00;;
58101;SDS011;52034;51.926;6.320;2023-05-10T01:02:46;13.18;;;11.07;;
58101;SDS011;52034;51.926;6.320;2023-05-10T01:03:46;15.23;;;11.20;;
58101;SDS011;52034;51.926;6.320;2023-05-10T01:04:47;17.03;;;11.73;;
58101;SDS011;52034;51.926;6.320;2023-05-10T01:05:47;20.67;;;13.23;;
58101;SDS011;52034;51.926;6.320;2023-05-10T01:06:47;18.73;;;12.70;;
58101;SDS011;52034;51.926;6.320;2023-05-10T01:07:48;15.50;;;11.87;;
58101;SDS011;52034;51.926;6.320;2023-05-10T01:08:48;17.73;;;12.93;;
58101;SDS011;52034;51.926;6.320;2023-05-10T01:09:49;16.50;;;11.80;;
58101;SDS011;52034;51.926;6.320;2023-05-10T01:10:49;15.83;;;12.23;;
58101;SDS011;52034;51.926;6.320;2023-05-10T01:11:50;22.23;;;13.97;;
58101;SDS011;52034;51.926;6.320;2023-05-10T01:12:50;25.53;;;14.40;;
58101;SDS011;52034;51.926;6.320;2023-05-10T01:13:52;22.77;;;14.70;;
58101;SDS011;52034;51.926;6.320;2023-05-10T01:14:56;23.90;;;15.57;;
58101;SDS011;52034;51.926;6.320;2023-05-10T01:15:58;26.83;;;15.45;;
58101;SDS011;52034;51.926;6.320;2023-05-10T01:18:00;24.05;;;15.77;;
58101;SDS011;52034;51.926;6.320;2023-05-10T01:19:01;27.10;;;16.83;;
58101;SDS011;52034;51.926;6.320;2023-05-10T01:20:07;31.30;;;19.83;;
58101;SDS011;52034;51.926;6.320;2023-05-10T01:25:37;36.25;;;20.45;;
58101;SDS011;52034;51.926;6.320;2023-05-10T01:31:36;49.28;;;24.90;;
58101;SDS011;52034;51.926;6.320;2023-05-10T01:32:55;54.42;;;26.92;;
58101;SDS011;52034;51.926;6.320;2023-05-10T01:34:16;47.92;;;25.35;;
58101;SDS011;52034;51.926;6.320;2023-05-10T01:36:29;54.38;;;26.67;;
58101;SDS011;52034;51.926;6.320;2023-05-10T01:37:35;47.55;;;25.85;;
58101;SDS011;52034;51.926;6.320;2023-05-10T01:38:53;50.28;;;26.67;;
58101;SDS011;52034;51.926;6.320;2023-05-10T01:40:16;66.78;;;30.70;;
58101;SDS011;52034;51.926;6.320;2023-05-10T01:41:28;63.15;;;30.20;;
58101;SDS011;52034;51.926;6.320;2023-05-10T01:42:33;70.85;;;31.45;;
58101;SDS011;52034;51.926;6.320;2023-05-10T01:43:48;67.68;;;30.00;;
58101;SDS011;52034;51.926;6.320;2023-05-10T01:46:14;76.93;;;33.17;;
58101;SDS011;52034;51.926;6.320;2023-05-10T01:47:19;66.88;;;32.10;;
58101;SDS011;52034;51.926;6.320;2023-05-10T01:48:41;65.88;;;32.53;;
58101;SDS011;52034;51.926;6.320;2023-05-10T01:49:49;68.75;;;32.42;;
58101;SDS011;52034;51.926;6.320;2023-05-10T01:50:51;76.20;;;34.50;;
58101;SDS011;52034;51.926;6.320;2023-05-10T01:53:00;79.40;;;34.55;;
58101;SDS011;52034;51.926;6.320;2023-05-10T01:54:02;77.97;;;35.40;;
58101;SDS011;52034;51.926;6.320;2023-05-10T01:55:05;85.13;;;36.63;;
58101;SDS011;52034;51.926;6.320;2023-05-10T01:56:09;62.03;;;32.33;;
58101;SDS011;52034;51.926;6.320;2023-05-10T01:57:11;92.57;;;38.17;;
58101;SDS011;52034;51.926;6.320;2023-05-10T01:58:22;72.70;;;33.95;;
58101;SDS011;52034;51.926;6.320;2023-05-10T01:59:28;77.05;;;35.38;;
58101;SDS011;52034;51.926;6.320;2023-05-10T02:00:31;82.95;;;37.38;;
58101;SDS011;52034;51.926;6.320;2023-05-10T02:01:33;85.32;;;36.97;;
58101;SDS011;52034;51.926;6.320;2023-05-10T02:02:40;70.70;;;33.63;;
58101;SDS011;52034;51.926;6.320;2023-05-10T02:03:45;76.65;;;36.25;;
58101;SDS011;52034;51.926;6.320;2023-05-10T02:04:47;75.20;;;35.05;;
58101;SDS011;52034;51.926;6.320;2023-05-10T02:05:50;64.47;;;31.15;;
58101;SDS011;52034;51.926;6.320;2023-05-10T02:06:55;73.88;;;36.08;;
58101;SDS011;52034;51.926;6.320;2023-05-10T02:07:56;84.90;;;37.75;;
58101;SDS011;52034;51.926;6.320;2023-05-10T02:08:58;75.18;;;35.67;;
58101;SDS011;52034;51.926;6.320;2023-05-10T02:10:04;90.38;;;37.50;;
58101;SDS011;52034;51.926;6.320;2023-05-10T02:11:07;89.32;;;37.28;;
58101;SDS011;52034;51.926;6.320;2023-05-10T02:12:08;80.63;;;35.57;;
58101;SDS011;52034;51.926;6.320;2023-05-10T02:13:09;87.90;;;37.38;;
58101;SDS011;52034;51.926;6.320;2023-05-10T02:14:11;87.20;;;37.38;;
58101;SDS011;52034;51.926;6.320;2023-05-10T02:15:13;103.07;;;43.33;;
58101;SDS011;52034;51.926;6.320;2023-05-10T02:16:18;110.80;;;41.75;;
58101;SDS011;52034;51.926;6.320;2023-05-10T02:17:23;85.97;;;40.20;;
58101;SDS011;52034;51.926;6.320;2023-05-10T02:18:25;105.25;;;43.97;;
58101;SDS011;52034;51.926;6.320;2023-05-10T02:19:27;98.57;;;42.10;;
58101;SDS011;52034;51.926;6.320;2023-05-10T02:20:30;103.20;;;43.72;;
58101;SDS011;52034;51.926;6.320;2023-05-10T02:22:34;110.90;;;45.58;;
58101;SDS011;52034;51.926;6.320;2023-05-10T02:23:36;110.75;;;45.97;;
58101;SDS011;52034;51.926;6.320;2023-05-10T02:24:37;110.82;;;46.72;;
58101;SDS011;52034;51.926;6.320;2023-05-10T02:25:39;105.45;;;43.97;;
58101;SDS011;52034;51.926;6.320;2023-05-10T02:26:41;123.88;;;46.83;;
58101;SDS011;52034;51.926;6.320;2023-05-10T02:27:43;116.35;;;46.95;;
58101;SDS011;52034;51.926;6.320;2023-05-10T02:28:44;115.35;;;45.80;;
58101;SDS011;52034;51.926;6.320;2023-05-10T02:29:45;102.68;;;44.55;;
58101;SDS011;52034;51.926;6.320;2023-05-10T02:30:46;115.53;;;46.78;;
58101;SDS011;52034;51.926;6.320;2023-05-10T02:31:47;115.07;;;47.38;;
58101;SDS011;52034;51.926;6.320;2023-05-10T02:32:50;97.97;;;42.58;;
58101;SDS011;52034;51.926;6.320;2023-05-10T02:33:52;109.60;;;45.15;;
58101;SDS011;52034;51.926;6.320;2023-05-10T02:34:54;98.25;;;43.60;;
58101;SDS011;52034;51.926;6.320;2023-05-10T02:35:55;110.57;;;45.83;;
58101;SDS011;52034;51.926;6.320;2023-05-10T02:36:56;116.45;;;47.08;;
58101;SDS011;52034;51.926;6.320;2023-05-10T02:37:59;101.43;;;42.90;;
58101;SDS011;52034;51.926;6.320;2023-05-10T02:39:00;106.25;;;44.50;;
58101;SDS011;52034;51.926;6.320;2023-05-10T02:40:02;105.25;;;44.33;;
58101;SDS011;52034;51.926;6.320;2023-05-10T02:41:05;108.07;;;44.45;;
58101;SDS011;52034;51.926;6.320;2023-05-10T02:42:08;100.22;;;43.55;;
58101;SDS011;52034;51.926;6.320;2023-05-10T02:43:15;92.53;;;40.60;;
58101;SDS011;52034;51.926;6.320;2023-05-10T02:44:18;105.38;;;44.47;;
58101;SDS011;52034;51.926;6.320;2023-05-10T02:45:21;107.60;;;43.03;;
58101;SDS011;52034;51.926;6.320;2023-05-10T02:46:26;107.22;;;45.28;;
58101;SDS011;52034;51.926;6.320;2023-05-10T02:47:27;107.73;;;43.13;;
58101;SDS011;52034;51.926;6.320;2023-05-10T02:48:28;98.93;;;43.35;;
58101;SDS011;52034;51.926;6.320;2023-05-10T02:49:28;104.97;;;43.40;;
58101;SDS011;52034;51.926;6.320;2023-05-10T02:50:29;112.67;;;45.53;;
58101;SDS011;52034;51.926;6.320;2023-05-10T02:51:32;113.30;;;44.92;;
58101;SDS011;52034;51.926;6.320;2023-05-10T02:52:38;88.65;;;40.85;;
58101;SDS011;52034;51.926;6.320;2023-05-10T02:53:42;109.43;;;44.58;;
58101;SDS011;52034;51.926;6.320;2023-05-10T02:54:45;102.78;;;43.33;;
58101;SDS011;52034;51.926;6.320;2023-05-10T02:55:51;99.70;;;43.55;;
58101;SDS011;52034;51.926;6.320;2023-05-10T02:56:56;101.05;;;41.78;;
58101;SDS011;52034;51.926;6.320;2023-05-10T02:58:00;97.00;;;41.40;;
58101;SDS011;52034;51.926;6.320;2023-05-10T02:59:02;96.10;;;42.97;;
58101;SDS011;52034;51.926;6.320;2023-05-10T03:00:02;90.47;;;40.40;;
58101;SDS011;52034;51.926;6.320;2023-05-10T03:01:03;96.57;;;41.30;;
58101;SDS011;52034;51.926;6.320;2023-05-10T03:02:03;97.10;;;42.23;;
58101;SDS011;52034;51.926;6.320;2023-05-10T03:03:05;83.93;;;39.70;;
58101;SDS011;52034;51.926;6.320;2023-05-10T03:04:05;89.73;;;41.73;;
58101;SDS011;52034;51.926;6.320;2023-05-10T03:05:06;84.13;;;40.15;;
58101;SDS011;52034;51.926;6.320;2023-05-10T03:06:06;96.20;;;41.60;;
58101;SDS011;52034;51.926;6.320;2023-05-10T03:07:07;89.37;;;40.60;;
58101;SDS011;52034;51.926;6.320;2023-05-10T03:08:08;98.25;;;40.95;;
58101;SDS011;52034;51.926;6.320;2023-05-10T03:09:09;103.60;;;45.10;;
58101;SDS011;52034;51.926;6.320;2023-05-10T03:10:12;98.10;;;42.45;;
58101;SDS011;52034;51.926;6.320;2023-05-10T03:11:28;108.28;;;44.30;;
58101;SDS011;52034;51.926;6.320;2023-05-10T03:12:38;87.97;;;41.00;;
58101;SDS011;52034;51.926;6.320;2023-05-10T03:17:35;103.93;;;42.67;;
58101;SDS011;52034;51.926;6.320;2023-05-10T03:18:45;90.13;;;39.92;;
58101;SDS011;52034;51.926;6.320;2023-05-10T03:20:06;92.53;;;41.42;;
58101;SDS011;52034;51.926;6.320;2023-05-10T03:21:11;92.43;;;41.17;;
58101;SDS011;52034;51.926;6.320;2023-05-10T03:22:16;101.00;;;42.70;;
58101;SDS011;52034;51.926;6.320;2023-05-10T03:23:35;98.10;;;40.25;;
58101;SDS011;52034;51.926;6.320;2023-05-10T03:24:42;101.07;;;42.85;;
58101;SDS011;52034;51.926;6.320;2023-05-10T03:25:43;83.43;;;38.25;;
58101;SDS011;52034;51.926;6.320;2023-05-10T03:26:46;104.43;;;42.03;;
58101;SDS011;52034;51.926;6.320;2023-05-10T03:27:51;93.75;;;41.50;;
58101;SDS011;52034;51.926;6.320;2023-05-10T03:29:53;101.95;;;43.00;;
58101;SDS011;52034;51.926;6.320;2023-05-10T03:30:55;89.63;;;40.60;;
58101;SDS011;52034;51.926;6.320;2023-05-10T03:31:59;96.20;;;41.85;;
58101;SDS011;52034;51.926;6.320;2023-05-10T03:33:05;87.13;;;42.10;;
58101;SDS011;52034;51.926;6.320;2023-05-10T03:34:12;100.60;;;42.60;;
58101;SDS011;52034;51.926;6.320;2023-05-10T03:35:13;91.80;;;41.33;;
58101;SDS011;52034;51.926;6.320;2023-05-10T03:36:15;92.07;;;41.42;;
58101;SDS011;52034;51.926;6.320;2023-05-10T03:37:16;100.90;;;43.47;;
58101;SDS011;52034;51.926;6.320;2023-05-10T03:38:16;100.83;;;44.23;;
58101;SDS011;52034;51.926;6.320;2023-05-10T03:39:16;93.17;;;41.87;;
58101;SDS011;52034;51.926;6.320;2023-05-10T03:40:22;91.43;;;43.00;;
58101;SDS011;52034;51.926;6.320;2023-05-10T03:41:23;91.35;;;42.63;;
58101;SDS011;52034;51.926;6.320;2023-05-10T03:42:23;85.23;;;41.13;;
58101;SDS011;52034;51.926;6.320;2023-05-10T03:43:24;95.57;;;43.27;;
58101;SDS011;52034;51.926;6.320;2023-05-10T03:44:24;88.30;;;42.47;;
58101;SDS011;52034;51.926;6.320;2023-05-10T03:45:24;101.17;;;44.80;;
58101;SDS011;52034;51.926;6.320;2023-05-10T03:46:25;106.07;;;45.33;;
58101;SDS011;52034;51.926;6.320;2023-05-10T03:47:25;106.93;;;45.83;;
58101;SDS011;52034;51.926;6.320;2023-05-10T03:48:25;95.43;;;44.00;;
58101;SDS011;52034;51.926;6.320;2023-05-10T03:49:27;95.57;;;42.85;;
58101;SDS011;52034;51.926;6.320;2023-05-10T03:50:27;92.37;;;43.93;;
58101;SDS011;52034;51.926;6.320;2023-05-10T03:51:27;99.50;;;44.23;;
58101;SDS011;52034;51.926;6.320;2023-05-10T03:52:28;102.57;;;46.57;;
58101;SDS011;52034;51.926;6.320;2023-05-10T03:53:29;97.07;;;44.50;;
58101;SDS011;52034;51.926;6.320;2023-05-10T03:54:29;100.13;;;44.77;;
58101;SDS011;52034;51.926;6.320;2023-05-10T03:55:30;92.07;;;44.23;;
58101;SDS011;52034;51.926;6.320;2023-05-10T03:56:34;93.25;;;42.90;;
58101;SDS011;52034;51.926;6.320;2023-05-10T03:57:34;90.97;;;43.33;;
58101;SDS011;52034;51.926;6.320;2023-05-10T03:58:35;101.33;;;44.83;;
58101;SDS011;52034;51.926;6.320;2023-05-10T03:59:35;103.63;;;45.27;;
58101;SDS011;52034;51.926;6.320;2023-05-10T04:00:36;111.70;;;46.70;;
58101;SDS011;52034;51.926;6.320;2023-05-10T04:01:37;104.00;;;46.33;;
58101;SDS011;52034;51.926;6.320;2023-05-10T04:02:37;100.27;;;46.83;;
58101;SDS011;52034;51.926;6.320;2023-05-10T04:03:37;108.93;;;48.77;;
58101;SDS011;52034;51.926;6.320;2023-05-10T04:04:39;104.80;;;47.53;;
58101;SDS011;52034;51.926;6.320;2023-05-10T04:05:39;108.87;;;48.57;;
58101;SDS011;52034;51.926;6.320;2023-05-10T04:06:40;120.70;;;50.83;;
58101;SDS011;52034;51.926;6.320;2023-05-10T04:07:40;91.27;;;48.93;;
58101;SDS011;52034;51.926;6.320;2023-05-10T04:08:40;108.97;;;50.07;;
58101;SDS011;52034;51.926;6.320;2023-05-10T04:09:41;95.00;;;48.37;;
58101;SDS011;52034;51.926;6.320;2023-05-10T04:10:41;103.80;;;49.83;;
58101;SDS011;52034;51.926;6.320;2023-05-10T04:11:41;99.53;;;49.33;;
58101;SDS011;52034;51.926;6.320;2023-05-10T04:12:42;105.50;;;48.90;;
58101;SDS011;52034;51.926;6.320;2023-05-10T04:13:42;107.00;;;50.10;;
58101;SDS011;52034;51.926;6.320;2023-05-10T04:14:43;103.80;;;48.03;;
58101;SDS011;52034;51.926;6.320;2023-05-10T04:15:43;85.93;;;46.73;;
58101;SDS011;52034;51.926;6.320;2023-05-10T04:16:43;109.03;;;48.93;;
58101;SDS011;52034;51.926;6.320;2023-05-10T04:17:44;101.73;;;49.53;;
58101;SDS011;52034;51.926;6.320;2023-05-10T04:18:44;105.37;;;50.87;;
58101;SDS011;52034;51.926;6.320;2023-05-10T04:19:44;119.73;;;52.23;;
58101;SDS011;52034;51.926;6.320;2023-05-10T04:20:45;99.73;;;51.27;;
58101;SDS011;52034;51.926;6.320;2023-05-10T04:21:45;100.33;;;50.40;;
58101;SDS011;52034;51.926;6.320;2023-05-10T04:22:45;124.27;;;52.40;;
58101;SDS011;52034;51.926;6.320;2023-05-10T04:23:46;105.97;;;49.83;;
58101;SDS011;52034;51.926;6.320;2023-05-10T04:24:46;124.87;;;53.63;;
58101;SDS011;52034;51.926;6.320;2023-05-10T04:25:46;102.00;;;49.30;;
58101;SDS011;52034;51.926;6.320;2023-05-10T04:26:46;98.90;;;46.40;;
58101;SDS011;52034;51.926;6.320;2023-05-10T04:27:47;112.50;;;49.60;;
58101;SDS011;52034;51.926;6.320;2023-05-10T04:28:47;109.97;;;49.73;;
58101;SDS011;52034;51.926;6.320;2023-05-10T04:29:48;106.43;;;49.77;;
58101;SDS011;52034;51.926;6.320;2023-05-10T04:30:48;111.83;;;48.33;;
58101;SDS011;52034;51.926;6.320;2023-05-10T04:31:48;101.87;;;46.40;;
58101;SDS011;52034;51.926;6.320;2023-05-10T04:32:49;112.73;;;49.30;;
58101;SDS011;52034;51.926;6.320;2023-05-10T04:33:49;113.53;;;49.80;;
58101;SDS011;52034;51.926;6.320;2023-05-10T04:34:50;122.23;;;49.03;;
58101;SDS011;52034;51.926;6.320;2023-05-10T04:35:53;96.15;;;44.75;;
58101;SDS011;52034;51.926;6.320;2023-05-10T04:36:53;104.80;;;47.53;;
58101;SDS011;52034;51.926;6.320;2023-05-10T04:37:54;114.40;;;48.60;;
58101;SDS011;52034;51.926;6.320;2023-05-10T04:38:54;111.83;;;47.27;;
58101;SDS011;52034;51.926;6.320;2023-05-10T04:39:54;109.47;;;47.90;;
58101;SDS011;52034;51.926;6.320;2023-05-10T04:41:03;120.47;;;49.57;;
58101;SDS011;52034;51.926;6.320;2023-05-10T04:42:07;106.03;;;45.97;;
58101;SDS011;52034;51.926;6.320;2023-05-10T04:43:07;117.80;;;49.00;;
58101;SDS011;52034;51.926;6.320;2023-05-10T04:44:07;133.33;;;51.47;;
58101;SDS011;52034;51.926;6.320;2023-05-10T04:45:08;105.73;;;47.73;;
58101;SDS011;52034;51.926;6.320;2023-05-10T04:46:09;127.15;;;49.90;;
58101;SDS011;52034;51.926;6.320;2023-05-10T04:47:10;119.63;;;49.17;;
58101;SDS011;52034;51.926;6.320;2023-05-10T04:48:11;113.80;;;49.80;;
58101;SDS011;52034;51.926;6.320;2023-05-10T04:49:11;111.30;;;48.27;;
58101;SDS011;52034;51.926;6.320;2023-05-10T04:50:12;114.87;;;48.20;;
58101;SDS011;52034;51.926;6.320;2023-05-10T04:51:12;139.20;;;51.70;;
58101;SDS011;52034;51.926;6.320;2023-05-10T04:52:12;113.17;;;48.93;;
58101;SDS011;52034;51.926;6.320;2023-05-10T04:53:13;135.63;;;51.38;;
58101;SDS011;52034;51.926;6.320;2023-05-10T04:54:14;119.03;;;50.27;;
58101;SDS011;52034;51.926;6.320;2023-05-10T04:55:14;136.30;;;51.27;;
58101;SDS011;52034;51.926;6.320;2023-05-10T04:56:14;110.50;;;48.57;;
58101;SDS011;52034;51.926;6.320;2023-05-10T04:57:16;129.65;;;51.83;;
58101;SDS011;52034;51.926;6.320;2023-05-10T04:58:16;131.73;;;51.17;;
58101;SDS011;52034;51.926;6.320;2023-05-10T04:59:16;120.73;;;49.70;;
58101;SDS011;52034;51.926;6.320;2023-05-10T05:00:17;115.47;;;48.30;;
58101;SDS011;52034;51.926;6.320;2023-05-10T05:01:17;119.37;;;49.17;;
58101;SDS011;52034;51.926;6.320;2023-05-10T05:02:18;108.80;;;46.67;;
58101;SDS011;52034;51.926;6.320;2023-05-10T05:03:18;112.67;;;47.10;;
58101;SDS011;52034;51.926;6.320;2023-05-10T05:04:19;104.77;;;46.70;;
58101;SDS011;52034;51.926;6.320;2023-05-10T05:05:19;107.33;;;47.53;;
58101;SDS011;52034;51.926;6.320;2023-05-10T05:06:19;104.03;;;45.93;;
58101;SDS011;52034;51.926;6.320;2023-05-10T05:07:20;112.40;;;48.38;;
58101;SDS011;52034;51.926;6.320;2023-05-10T05:08:21;122.67;;;49.00;;
58101;SDS011;52034;51.926;6.320;2023-05-10T05:09:21;106.13;;;46.70;;
58101;SDS011;52034;51.926;6.320;2023-05-10T05:10:21;108.33;;;47.00;;
58101;SDS011;52034;51.926;6.320;2023-05-10T05:11:22;101.93;;;45.43;;
58101;SDS011;52034;51.926;6.320;2023-05-10T05:12:22;103.60;;;45.87;;
58101;SDS011;52034;51.926;6.320;2023-05-10T05:13:23;108.90;;;47.03;;
58101;SDS011;52034;51.926;6.320;2023-05-10T05:14:23;125.67;;;49.50;;
58101;SDS011;52034;51.926;6.320;2023-05-10T05:16:25;97.80;;;45.67;;
58101;SDS011;52034;51.926;6.320;2023-05-10T05:17:26;110.00;;;47.13;;
58101;SDS011;52034;51.926;6.320;2023-05-10T05:18:26;104.13;;;48.60;;
58101;SDS011;52034;51.926;6.320;2023-05-10T05:19:26;103.33;;;46.30;;
58101;SDS011;52034;51.926;6.320;2023-05-10T05:20:27;103.57;;;46.30;;
58101;SDS011;52034;51.926;6.320;2023-05-10T05:21:27;115.73;;;48.07;;
58101;SDS011;52034;51.926;6.320;2023-05-10T05:22:28;109.63;;;48.05;;
58101;SDS011;52034;51.926;6.320;2023-05-10T05:23:29;103.53;;;46.80;;
58101;SDS011;52034;51.926;6.320;2023-05-10T05:24:34;121.38;;;49.20;;
58101;SDS011;52034;51.926;6.320;2023-05-10T05:25:35;97.80;;;46.88;;
58101;SDS011;52034;51.926;6.320;2023-05-10T05:26:36;97.33;;;44.63;;
58101;SDS011;52034;51.926;6.320;2023-05-10T05:27:36;102.57;;;45.17;;
58101;SDS011;52034;51.926;6.320;2023-05-10T05:28:37;106.10;;;46.80;;
58101;SDS011;52034;51.926;6.320;2023-05-10T05:29:37;100.07;;;46.07;;
58101;SDS011;52034;51.926;6.320;2023-05-10T05:30:38;99.30;;;45.60;;
58101;SDS011;52034;51.926;6.320;2023-05-10T05:31:38;101.73;;;46.13;;
58101;SDS011;52034;51.926;6.320;2023-05-10T05:32:38;95.40;;;43.33;;
58101;SDS011;52034;51.926;6.320;2023-05-10T05:33:39;105.27;;;44.33;;
58101;SDS011;52034;51.926;6.320;2023-05-10T05:34:39;91.50;;;44.53;;
58101;SDS011;52034;51.926;6.320;2023-05-10T05:35:39;92.27;;;41.67;;
58101;SDS011;52034;51.926;6.320;2023-05-10T05:36:40;95.90;;;44.47;;
58101;SDS011;52034;51.926;6.320;2023-05-10T05:37:41;90.17;;;43.27;;
58101;SDS011;52034;51.926;6.320;2023-05-10T05:38:41;88.55;;;43.25;;
58101;SDS011;52034;51.926;6.320;2023-05-10T05:39:43;100.30;;;43.70;;
58101;SDS011;52034;51.926;6.320;2023-05-10T05:40:44;94.90;;;43.30;;
58101;SDS011;52034;51.926;6.320;2023-05-10T05:42:46;95.78;;;42.85;;
58101;SDS011;52034;51.926;6.320;2023-05-10T05:43:46;88.37;;;43.07;;
58101;SDS011;52034;51.926;6.320;2023-05-10T05:44:47;97.57;;;44.10;;
58101;SDS011;52034;51.926;6.320;2023-05-10T05:45:47;95.43;;;42.47;;
58101;SDS011;52034;51.926;6.320;2023-05-10T05:46:47;85.00;;;42.03;;
58101;SDS011;52034;51.926;6.320;2023-05-10T05:47:48;83.30;;;41.97;;
58101;SDS011;52034;51.926;6.320;2023-05-10T05:48:48;84.17;;;42.30;;
58101;SDS011;52034;51.926;6.320;2023-05-10T05:49:49;83.00;;;40.70;;
58101;SDS011;52034;51.926;6.320;2023-05-10T05:50:49;93.77;;;43.23;;
58101;SDS011;52034;51.926;6.320;2023-05-10T05:51:50;84.60;;;41.37;;
58101;SDS011;52034;51.926;6.320;2023-05-10T05:52:50;95.03;;;44.17;;
58101;SDS011;52034;51.926;6.320;2023-05-10T05:53:51;87.93;;;41.97;;
58101;SDS011;52034;51.926;6.320;2023-05-10T05:54:51;101.10;;;45.57;;
58101;SDS011;52034;51.926;6.320;2023-05-10T05:55:52;96.70;;;43.70;;
58101;SDS011;52034;51.926;6.320;2023-05-10T05:56:54;97.15;;;42.95;;
58101;SDS011;52034;51.926;6.320;2023-05-10T05:57:55;94.28;;;42.90;;
58101;SDS011;52034;51.926;6.320;2023-05-10T05:58:55;87.00;;;42.67;;
58101;SDS011;52034;51.926;6.320;2023-05-10T05:59:56;99.80;;;43.60;;
58101;SDS011;52034;51.926;6.320;2023-05-10T06:00:56;96.17;;;45.47;;
58101;SDS011;52034;51.926;6.320;2023-05-10T06:01:57;102.33;;;43.80;;
58101;SDS011;52034;51.926;6.320;2023-05-10T06:02:57;104.23;;;46.23;;
58101;SDS011;52034;51.926;6.320;2023-05-10T06:03:57;99.57;;;44.73;;
58101;SDS011;52034;51.926;6.320;2023-05-10T06:04:58;95.23;;;42.50;;
58101;SDS011;52034;51.926;6.320;2023-05-10T06:05:58;89.67;;;42.60;;
58101;SDS011;52034;51.926;6.320;2023-05-10T06:06:58;98.07;;;43.30;;
58101;SDS011;52034;51.926;6.320;2023-05-10T06:07:59;95.23;;;42.90;;
58101;SDS011;52034;51.926;6.320;2023-05-10T06:09:00;87.90;;;42.03;;
58101;SDS011;52034;51.926;6.320;2023-05-10T06:10:00;96.27;;;42.67;;
58101;SDS011;52034;51.926;6.320;2023-05-10T06:11:01;93.20;;;41.92;;
58101;SDS011;52034;51.926;6.320;2023-05-10T06:12:01;94.67;;;42.87;;
58101;SDS011;52034;51.926;6.320;2023-05-10T06:13:01;99.33;;;43.40;;
58101;SDS011;52034;51.926;6.320;2023-05-10T06:14:02;97.50;;;43.20;;
58101;SDS011;52034;51.926;6.320;2023-05-10T06:15:09;98.10;;;42.90;;
58101;SDS011;52034;51.926;6.320;2023-05-10T06:16:10;103.03;;;43.55;;
58101;SDS011;52034;51.926;6.320;2023-05-10T06:17:10;108.13;;;43.83;;
58101;SDS011;52034;51.926;6.320;2023-05-10T06:18:10;99.37;;;44.30;;
58101;SDS011;52034;51.926;6.320;2023-05-10T06:19:11;100.20;;;42.10;;
58101;SDS011;52034;51.926;6.320;2023-05-10T06:20:11;109.83;;;45.33;;
58101;SDS011;52034;51.926;6.320;2023-05-10T06:21:12;99.80;;;42.35;;
58101;SDS011;52034;51.926;6.320;2023-05-10T06:22:12;103.13;;;43.30;;